createdAt,value
2023-02-09T00:02:24.823Z,96339.13
2023-02-09T00:05:34.493Z,96329.22
2023-02-09T00:08:43.586Z,96330.25
2023-02-09T00:12:09.410Z,96317.34
2023-02-09T00:15:17.622Z,96318.63
2023-02-09T00:18:28.469Z,96315.44
2023-02-09T00:21:39.203Z,96310.47
2023-02-09T00:24:47.409Z,96312.91
2023-02-09T00:27:55.601Z,96323.53
2023-02-09T00:31:09.684Z,96318.94
2023-02-09T00:34:21.331Z,96325.84
2023-02-09T00:37:31.029Z,96326.84
2023-02-09T00:40:40.716Z,96324.31
2023-02-09T00:43:49.311Z,96321.66
2023-02-09T00:46:57.743Z,96329.06
2023-02-09T00:50:08.435Z,96330.72
2023-02-09T00:53:17.953Z,96321.59
2023-02-09T00:56:26.271Z,96324.34
2023-02-09T00:59:36.270Z,96328.25
2023-02-09T01:02:44.394Z,96328.47
2023-02-09T01:05:53.357Z,96327.41
2023-02-09T01:09:03.595Z,96326.13
2023-02-09T01:12:12.941Z,96317.25
2023-02-09T01:15:21.526Z,96303.97
2023-02-09T01:18:29.765Z,96311.72
2023-02-09T01:21:38.031Z,96303.63
2023-02-09T01:24:47.870Z,96305.66
2023-02-09T01:27:57.877Z,96306.38
2023-02-09T01:31:07.842Z,96303.25
2023-02-09T01:34:19.003Z,96306.56
2023-02-09T01:47:49.607Z,96302.41
2023-02-09T01:51:01.513Z,96294.09
2023-02-09T01:54:15.891Z,96297.53
2023-02-09T01:57:32.287Z,96302.16
2023-02-09T02:00:40.828Z,96293.53
2023-02-09T02:03:50.520Z,96289.03
2023-02-09T02:07:11.098Z,96299.69
2023-02-09T02:10:20.298Z,96290.63
2023-02-09T02:13:28.613Z,96292.88
2023-02-09T02:16:53.422Z,96286.56
2023-02-09T02:20:47.533Z,96295.34
2023-02-09T02:24:41.977Z,96295.00
2023-02-09T02:28:02.426Z,96290.81
2023-02-09T02:31:53.606Z,96297.81
2023-02-09T02:35:10.345Z,96303.16
2023-02-09T02:38:34.505Z,96299.38
2023-02-09T02:42:10.884Z,96292.25
2023-02-09T02:45:33.600Z,96294.19
2023-02-09T02:48:48.737Z,96298.06
2023-02-09T02:52:03.699Z,96296.06
2023-02-09T02:55:16.051Z,96299.88
2023-02-09T02:58:29.290Z,96292.69
2023-02-09T03:01:47.309Z,96283.41
2023-02-09T03:04:59.763Z,96277.44
2023-02-09T03:08:08.162Z,96278.81
2023-02-09T03:11:17.591Z,96282.66
2023-02-09T03:14:44.891Z,96279.59
2023-02-09T03:18:11.079Z,96281.31
2023-02-09T03:21:33.143Z,96279.66
2023-02-09T03:24:49.971Z,96279.53
2023-02-09T03:28:04.927Z,96286.03
2023-02-09T03:31:14.933Z,96285.47
2023-02-09T03:34:23.258Z,96283.28
2023-02-09T03:37:33.020Z,96282.63
2023-02-09T03:40:41.500Z,96293.88
2023-02-09T03:44:07.357Z,96286.56
2023-02-09T03:47:15.850Z,96286.03
2023-02-09T03:50:24.013Z,96288.00
2023-02-09T03:53:36.353Z,96281.59
2023-02-09T03:56:44.640Z,96285.47
2023-02-09T03:59:52.840Z,96281.88
2023-02-09T04:03:00.996Z,96288.56
2023-02-09T04:06:09.984Z,96285.03
2023-02-09T04:09:19.790Z,96283.34
2023-02-09T04:12:27.973Z,96284.34
2023-02-09T04:15:36.533Z,96285.66
2023-02-09T04:18:44.745Z,96286.06
2023-02-09T04:21:53.011Z,96299.97
2023-02-09T04:25:10.058Z,96303.88
2023-02-09T04:28:18.292Z,96303.81
2023-02-09T04:31:26.651Z,96299.31
2023-02-09T04:34:34.824Z,96304.81
2023-02-09T04:37:42.887Z,96292.41
2023-02-09T04:40:55.367Z,96299.03
2023-02-09T04:44:03.584Z,96298.56
2023-02-09T04:47:11.688Z,96301.34
2023-02-09T04:50:19.937Z,96291.31
2023-02-09T04:53:29.544Z,96288.25
2023-02-09T04:56:39.082Z,96290.38
2023-02-09T04:59:46.559Z,96296.00
2023-02-09T05:02:56.171Z,96301.16
2023-02-09T05:06:07.264Z,96304.50
2023-02-09T05:09:15.472Z,96306.63
2023-02-09T05:12:25.016Z,96307.88
2023-02-09T05:15:33.287Z,96314.66
2023-02-09T05:18:41.498Z,96322.31
2023-02-09T05:21:49.639Z,96331.06
2023-02-09T05:24:57.789Z,96330.22
2023-02-09T05:28:08.044Z,96330.91
2023-02-09T05:31:16.547Z,96332.47
2023-02-09T05:34:25.042Z,96331.19
2023-02-09T05:37:33.289Z,96332.03
2023-02-09T05:40:41.945Z,96338.47
2023-02-09T05:43:52.205Z,96330.31
2023-02-09T05:47:00.538Z,96334.41
2023-02-09T05:50:09.306Z,96335.47
2023-02-09T05:53:17.617Z,96336.88
2023-02-09T05:56:26.325Z,96339.53
2023-02-09T05:59:35.971Z,96336.78
2023-02-09T06:02:44.834Z,96334.97
2023-02-09T06:05:53.038Z,96337.41
2023-02-09T06:09:02.024Z,96345.09
2023-02-09T06:12:10.235Z,96338.13
2023-02-09T06:15:21.039Z,96345.09
2023-02-09T06:18:29.237Z,96349.22
2023-02-09T06:21:37.548Z,96348.16
2023-02-09T06:24:45.789Z,96356.19
2023-02-09T06:27:53.986Z,96342.16
2023-02-09T06:31:04.376Z,96354.75
2023-02-09T06:34:12.730Z,96357.31
2023-02-09T06:37:20.814Z,96356.69
2023-02-09T06:40:29.715Z,96361.13
2023-02-09T06:43:38.297Z,96363.28
2023-02-09T06:46:48.636Z,96356.19
2023-02-09T06:49:56.849Z,96368.78
2023-02-09T06:53:06.247Z,96375.34
2023-02-09T06:56:17.328Z,96373.22
2023-02-09T06:59:28.491Z,96378.59
2023-02-09T07:02:38.561Z,96371.91
2023-02-09T07:05:46.826Z,96366.03
2023-02-09T07:08:55.120Z,96360.50
2023-02-09T07:12:03.427Z,96374.53
2023-02-09T07:15:13.726Z,96369.03
2023-02-09T07:18:27.631Z,96379.50
2023-02-09T07:21:39.040Z,96376.44
2023-02-09T07:24:49.949Z,96378.78
2023-02-09T07:27:58.424Z,96381.97
2023-02-09T07:31:09.744Z,96387.94
2023-02-09T07:34:19.464Z,96389.69
2023-02-09T07:37:27.851Z,96383.72
2023-02-09T07:40:39.256Z,96390.25
2023-02-09T07:43:47.923Z,96384.81
2023-02-09T07:46:59.098Z,96391.63
2023-02-09T07:50:10.360Z,96392.78
2023-02-09T07:53:18.751Z,96392.63
2023-02-09T07:56:28.022Z,96380.97
2023-02-09T07:59:36.718Z,96391.00
2023-02-09T08:02:46.528Z,96384.28
2023-02-09T08:09:33.449Z,96382.47
2023-02-09T08:12:55.895Z,96384.59
2023-02-09T08:16:08.609Z,96383.88
2023-02-09T08:19:24.177Z,96384.69
2023-02-09T08:22:37.750Z,96377.81
2023-02-09T08:25:51.622Z,96377.81
2023-02-09T08:29:00.333Z,96377.03
2023-02-09T08:32:08.626Z,96372.81
2023-02-09T08:35:18.030Z,96377.25
2023-02-09T08:38:27.385Z,96378.25
2023-02-09T08:41:40.848Z,96370.91
2023-02-09T08:44:49.292Z,96382.16
2023-02-09T08:47:57.760Z,96379.84
2023-02-09T08:51:07.107Z,96376.50
2023-02-09T08:54:15.952Z,96375.81
2023-02-09T08:57:41.655Z,96372.69
2023-02-09T09:00:51.492Z,96372.47
2023-02-09T09:04:00.012Z,96371.63
2023-02-09T09:07:08.176Z,96378.06
2023-02-09T09:10:16.938Z,96378.00
2023-02-09T09:13:29.462Z,96375.69
2023-02-09T09:16:39.229Z,96371.28
2023-02-09T09:19:52.699Z,96374.69
2023-02-09T09:23:02.105Z,96362.72
2023-02-09T09:26:10.853Z,96366.53
2023-02-09T09:29:20.770Z,96369.28
2023-02-09T09:32:29.238Z,96377.56
2023-02-09T09:35:38.013Z,96381.00
2023-02-09T09:38:46.346Z,96378.22
2023-02-09T09:41:59.687Z,96384.00
2023-02-09T09:45:20.381Z,96380.38
2023-02-09T09:48:39.733Z,96382.91
2023-02-09T09:51:53.866Z,96387.75
2023-02-09T09:55:06.826Z,96384.38
2023-02-09T09:58:20.680Z,96392.06
2023-02-09T10:01:34.177Z,96390.28
2023-02-09T10:04:42.789Z,96394.16
2023-02-09T10:08:00.895Z,96390.81
2023-02-09T10:11:14.121Z,96391.22
2023-02-09T10:14:23.755Z,96386.19
2023-02-09T10:17:33.679Z,96392.28
2023-02-09T10:20:47.717Z,96387.66
2023-02-09T10:24:13.596Z,96400.44
2023-02-09T10:27:30.998Z,96396.03
2023-02-09T10:30:39.652Z,96388.28
2023-02-09T10:33:56.764Z,96400.78
2023-02-09T10:37:27.419Z,96393.72
2023-02-09T10:40:42.168Z,96388.44
2023-02-09T10:43:53.853Z,96386.94
2023-02-09T10:47:28.350Z,96377.22
2023-02-09T10:50:53.755Z,96373.88
2023-02-09T10:54:07.392Z,96378.66
2023-02-09T10:57:29.830Z,96379.22
2023-02-09T11:00:49.633Z,96367.56
2023-02-09T11:04:02.663Z,96362.66
2023-02-09T11:07:18.366Z,96358.38
2023-02-09T11:10:31.033Z,96354.81
2023-02-09T11:13:43.585Z,96351.97
2023-02-09T11:17:18.300Z,96353.16
2023-02-09T11:20:33.635Z,96350.06
2023-02-09T11:23:56.971Z,96353.16
2023-02-09T11:27:21.468Z,96347.94
2023-02-09T11:30:57.062Z,96351.53
2023-02-09T11:34:19.421Z,96341.50
2023-02-09T11:37:44.021Z,96338.84
2023-02-09T11:40:57.559Z,96334.31
2023-02-09T11:44:12.586Z,96320.47
2023-02-09T11:47:29.635Z,96325.69
2023-02-09T11:50:52.400Z,96316.16
2023-02-09T11:54:08.876Z,96318.53
2023-02-09T11:57:35.781Z,96320.69
2023-02-09T12:01:01.702Z,96310.84
2023-02-09T12:04:24.806Z,96304.00
2023-02-09T12:07:42.976Z,96309.75
2023-02-09T12:11:09.098Z,96304.69
2023-02-09T12:14:47.014Z,96302.31
2023-02-09T12:18:01.072Z,96308.50
2023-02-09T12:21:10.325Z,96287.69
2023-02-09T12:24:40.091Z,96287.56
2023-02-09T12:28:18.390Z,96284.41
2023-02-09T12:31:29.061Z,96282.69
2023-02-09T12:34:42.155Z,96275.81
2023-02-09T12:38:19.212Z,96272.91
2023-02-09T12:41:30.417Z,96275.00
2023-02-09T12:44:40.179Z,96272.38
2023-02-09T12:48:01.060Z,96274.97
2023-02-09T12:52:07.663Z,96276.69
2023-02-09T12:55:23.681Z,96266.56
2023-02-09T12:58:41.419Z,96271.06
2023-02-09T13:02:15.963Z,96262.88
2023-02-09T13:05:30.342Z,96266.34
2023-02-09T13:08:49.994Z,96257.59
2023-02-09T13:12:11.593Z,96262.38
2023-02-09T13:15:20.665Z,96260.59
2023-02-09T13:18:39.566Z,96244.81
2023-02-09T13:22:02.558Z,96251.84
2023-02-09T13:25:21.536Z,96254.47
2023-02-09T13:28:31.046Z,96259.44
2023-02-09T13:31:43.658Z,96248.34
2023-02-09T13:35:01.438Z,96254.59
2023-02-09T13:38:18.490Z,96249.25
2023-02-09T13:41:38.546Z,96250.81
2023-02-09T13:44:51.160Z,96253.41
2023-02-09T13:48:02.786Z,96241.22
2023-02-09T13:51:19.340Z,96244.41
2023-02-09T13:54:28.951Z,96251.22
2023-02-09T13:57:40.477Z,96257.28
2023-02-09T14:00:53.624Z,96255.72
2023-02-09T14:04:13.227Z,96259.19
2023-02-09T14:07:25.812Z,96259.50
2023-02-09T14:10:36.597Z,96264.09
2023-02-09T14:13:53.114Z,96261.00
2023-02-09T14:17:24.359Z,96263.09
2023-02-09T14:20:33.373Z,96259.91
2023-02-09T14:23:44.130Z,96249.56
2023-02-09T14:27:24.758Z,96258.34
2023-02-09T14:30:36.308Z,96257.41
2023-02-09T14:33:50.025Z,96261.31
2023-02-09T14:37:02.426Z,96261.91
2023-02-09T14:40:25.122Z,96259.78
2023-02-09T14:43:34.670Z,96264.22
2023-02-09T14:46:53.190Z,96264.28
2023-02-09T14:50:02.125Z,96268.47
2023-02-09T14:53:16.191Z,96266.03
2023-02-09T14:56:31.080Z,96271.22
2023-02-09T14:59:40.781Z,96270.41
2023-02-09T15:02:50.348Z,96276.44
2023-02-09T15:06:02.328Z,96278.63
2023-02-09T15:09:21.384Z,96276.75
2023-02-09T15:12:31.298Z,96280.84
2023-02-09T15:15:41.470Z,96274.38
2023-02-09T15:18:50.143Z,96285.28
2023-02-09T15:22:07.015Z,96275.50
2023-02-09T15:25:19.091Z,96274.47
2023-02-09T15:28:30.399Z,96282.88
2023-02-09T15:31:40.761Z,96290.69
2023-02-09T15:34:49.817Z,96288.03
2023-02-09T15:38:01.422Z,96294.28
2023-02-09T15:41:30.091Z,96302.94
2023-02-09T15:44:55.800Z,96299.59
2023-02-09T15:48:10.019Z,96300.47
2023-02-09T15:51:18.706Z,96295.59
2023-02-09T15:54:34.705Z,96314.59
2023-02-09T15:57:42.912Z,96310.53
2023-02-09T16:00:52.984Z,96318.03
2023-02-09T16:04:13.786Z,96321.59
2023-02-09T16:07:29.189Z,96331.59
2023-02-09T16:10:39.006Z,96333.78
2023-02-09T16:13:48.167Z,96337.19
2023-02-09T16:16:57.031Z,96336.94
2023-02-09T16:20:08.806Z,96343.31
2023-02-09T16:23:24.087Z,96348.47
2023-02-09T16:26:34.268Z,96351.56
2023-02-09T16:29:42.699Z,96359.09
2023-02-09T16:32:52.075Z,96360.69
2023-02-09T16:36:05.156Z,96371.72
2023-02-09T16:39:18.919Z,96372.78
2023-02-09T16:42:29.412Z,96376.13
2023-02-09T16:45:44.614Z,96382.63
2023-02-09T16:48:56.590Z,96381.25
2023-02-09T16:52:16.704Z,96386.63
2023-02-09T16:55:29.933Z,96394.47
2023-02-09T16:58:40.262Z,96390.84
2023-02-09T17:01:49.141Z,96394.94
2023-02-09T17:04:58.101Z,96400.44
2023-02-09T17:08:17.016Z,96395.88
2023-02-09T17:11:29.420Z,96405.06
2023-02-09T17:14:38.185Z,96404.13
2023-02-09T17:17:52.191Z,96402.22
2023-02-09T17:21:06.825Z,96413.00
2023-02-09T17:24:18.840Z,96415.13
2023-02-09T17:27:27.249Z,96419.63
2023-02-09T17:30:36.678Z,96424.03
2023-02-09T17:33:47.623Z,96422.88
2023-02-09T17:36:56.031Z,96429.19
2023-02-09T17:40:06.411Z,96435.72
2023-02-09T17:43:14.570Z,96452.38
2023-02-09T17:46:23.726Z,96449.19
2023-02-09T17:49:32.180Z,96442.28
2023-02-09T17:52:40.561Z,96445.44
2023-02-09T17:55:51.613Z,96455.16
2023-02-09T17:59:03.064Z,96450.59
2023-02-09T18:02:17.519Z,96450.66
2023-02-09T18:05:28.568Z,96449.81
2023-02-09T18:08:36.675Z,96454.00
2023-02-09T18:12:02.407Z,96454.13
2023-02-09T18:15:23.128Z,96447.47
2023-02-09T18:18:31.218Z,96462.00
2023-02-09T18:21:40.852Z,96466.88
2023-02-09T18:24:49.186Z,96470.09
2023-02-09T18:27:58.781Z,96469.03
2023-02-09T18:31:07.280Z,96469.38
2023-02-09T18:34:16.719Z,96462.81
2023-02-09T18:37:24.840Z,96469.91
2023-02-09T18:40:34.433Z,96474.47
2023-02-09T18:43:44.683Z,96468.78
2023-02-09T18:46:52.905Z,96472.09
2023-02-09T18:50:01.269Z,96480.09
2023-02-09T18:53:09.594Z,96471.84
2023-02-09T18:56:20.351Z,96475.81
2023-02-09T18:59:32.094Z,96475.38
2023-02-09T19:02:40.609Z,96480.34
2023-02-09T19:05:49.240Z,96475.03
2023-02-09T19:08:57.605Z,96474.97
2023-02-09T19:12:09.633Z,96477.00
2023-02-09T19:15:22.416Z,96485.66
2023-02-09T19:18:31.775Z,96483.81
2023-02-09T19:21:39.998Z,96497.34
2023-02-09T19:24:51.370Z,96478.41
2023-02-09T19:28:04.413Z,96491.72
2023-02-09T19:31:15.999Z,96498.28
2023-02-09T19:34:25.285Z,96499.34
2023-02-09T19:37:33.880Z,96494.41
2023-02-09T19:40:43.636Z,96497.00
2023-02-09T19:43:56.912Z,96498.06
2023-02-09T19:47:06.958Z,96505.31
2023-02-09T19:50:18.975Z,96499.53
2023-02-09T19:53:28.608Z,96496.34
2023-02-09T19:56:36.872Z,96497.03
2023-02-09T19:59:45.519Z,96489.63
2023-02-09T20:02:55.193Z,96494.19
2023-02-09T20:06:09.220Z,96493.75
2023-02-09T20:09:17.694Z,96496.97
2023-02-09T20:12:25.825Z,96500.50
2023-02-09T20:15:42.012Z,96505.38
2023-02-09T20:18:55.572Z,96500.22
2023-02-09T20:22:03.981Z,96502.22
2023-02-09T20:25:15.139Z,96502.75
2023-02-09T20:28:24.340Z,96503.44
2023-02-09T20:31:38.094Z,96500.00
2023-02-09T20:34:48.297Z,96507.09
2023-02-09T20:37:56.476Z,96512.53
2023-02-09T20:41:09.671Z,96514.59
2023-02-09T20:44:35.418Z,96512.25
2023-02-09T20:47:43.668Z,96512.50
2023-02-09T20:50:53.567Z,96522.13
2023-02-09T20:54:02.049Z,96515.69
2023-02-09T20:57:10.731Z,96517.19
2023-02-09T21:00:19.824Z,96513.78
2023-02-09T21:03:27.915Z,96512.31
2023-02-09T21:06:39.316Z,96531.56
2023-02-09T21:09:48.222Z,96535.06
2023-02-09T21:12:56.358Z,96541.66
2023-02-09T21:16:04.756Z,96545.78
2023-02-09T21:19:12.953Z,96551.81
2023-02-09T21:22:22.704Z,96547.28
2023-02-09T21:25:31.603Z,96548.59
2023-02-09T21:28:39.742Z,96549.03
2023-02-09T21:31:47.998Z,96551.88
2023-02-09T21:34:56.381Z,96552.91
2023-02-09T21:38:05.981Z,96547.16
2023-02-09T21:41:32.789Z,96556.97
2023-02-09T21:44:40.933Z,96559.72
2023-02-09T21:47:49.527Z,96566.47
2023-02-09T21:50:57.997Z,96560.78
2023-02-09T21:54:07.824Z,96557.63
2023-02-09T21:57:16.057Z,96559.63
2023-02-09T22:00:24.455Z,96557.75
2023-02-09T22:03:32.884Z,96560.06
2023-02-09T22:06:41.964Z,96562.59
2023-02-09T22:09:51.470Z,96567.84
2023-02-09T22:12:59.661Z,96571.72
2023-02-09T22:16:09.719Z,96575.03
2023-02-09T22:19:17.802Z,96575.66
2023-02-09T22:22:25.971Z,96575.09
2023-02-09T22:25:36.072Z,96583.03
2023-02-09T22:28:44.288Z,96589.16
2023-02-09T22:31:52.442Z,96590.28
2023-02-09T22:35:00.582Z,96598.25
2023-02-09T22:38:08.725Z,96598.38
2023-02-09T22:41:24.481Z,96591.69
2023-02-09T22:44:33.445Z,96600.47
2023-02-09T22:47:41.739Z,96605.78
2023-02-09T22:50:49.845Z,96600.84
2023-02-09T22:54:00.357Z,96601.41
2023-02-09T22:57:09.909Z,96594.94
2023-02-09T23:00:19.268Z,96600.13
2023-02-09T23:03:27.527Z,96609.94
2023-02-09T23:06:35.824Z,96611.94
2023-02-09T23:09:44.502Z,96612.47
2023-02-09T23:12:53.987Z,96619.25
2023-02-09T23:16:11.103Z,96618.19
2023-02-09T23:19:21.515Z,96622.28
2023-02-09T23:22:29.834Z,96626.25
2023-02-09T23:25:38.150Z,96620.44
2023-02-09T23:28:48.280Z,96608.44
2023-02-09T23:31:56.699Z,96603.03
2023-02-09T23:35:05.392Z,96594.78
2023-02-09T23:38:13.668Z,96609.97
2023-02-09T23:41:24.599Z,96591.47
2023-02-09T23:44:34.767Z,96582.66
2023-02-09T23:47:43.007Z,96596.19
2023-02-09T23:50:51.522Z,96585.56
2023-02-09T23:54:03.705Z,96583.69
2023-02-09T23:57:12.056Z,96585.72
